sensor_id;sensor_type;location;lat;lon;timestamp;pressure;altitude;pressure_sealevel;temperature;humidity
13968;BME280;39536;52.198;9.920;2023-01-28T00:01:16;101939.38;;;2.52;100.00
13968;BME280;39536;52.198;9.920;2023-01-28T00:03:44;101943.50;;;2.44;100.00
13968;BME280;39536;52.198;9.920;2023-01-28T00:06:11;101946.72;;;2.35;100.00
13968;BME280;39536;52.198;9.920;2023-01-28T00:08:38;101949.91;;;2.26;100.00
13968;BME280;39536;52.198;9.920;2023-01-28T00:11:08;101943.00;;;2.24;100.00
13968;BME280;39536;52.198;9.920;2023-01-28T00:13:35;101943.81;;;2.21;100.00
13968;BME280;39536;52.198;9.920;2023-01-28T00:16:03;101941.13;;;2.17;100.00
13968;BME280;39536;52.198;9.920;2023-01-28T00:18:31;101936.59;;;2.06;100.00
13968;BME280;39536;52.198;9.920;2023-01-28T00:20:59;101938.41;;;2.11;100.00
13968;BME280;39536;52.198;9.920;2023-01-28T00:23:27;101925.63;;;2.14;100.00
13968;BME280;39536;52.198;9.920;2023-01-28T00:25:54;101934.34;;;2.20;100.00
13968;BME280;39536;52.198;9.920;2023-01-28T00:28:22;101930.19;;;2.25;100.00
13968;BME280;39536;52.198;9.920;2023-01-28T00:30:49;101932.84;;;2.28;100.00
13968;BME280;39536;52.198;9.920;2023-01-28T00:33:16;101926.00;;;2.30;100.00
13968;BME280;39536;52.198;9.920;2023-01-28T00:35:42;101930.41;;;2.35;100.00
13968;BME280;39536;52.198;9.920;2023-01-28T00:38:10;101941.63;;;2.38;100.00
13968;BME280;39536;52.198;9.920;2023-01-28T00:40:37;101937.94;;;2.27;100.00
13968;BME280;39536;52.198;9.920;2023-01-28T00:43:03;101948.28;;;2.28;100.00
13968;BME280;39536;52.198;9.920;2023-01-28T00:45:30;101942.19;;;2.25;100.00
13968;BME280;39536;52.198;9.920;2023-01-28T00:47:56;101944.84;;;2.29;100.00
13968;BME280;39536;52.198;9.920;2023-01-28T00:50:23;101946.47;;;2.24;100.00
13968;BME280;39536;52.198;9.920;2023-01-28T00:52:49;101942.06;;;2.20;100.00
13968;BME280;39536;52.198;9.920;2023-01-28T00:55:17;101940.06;;;2.08;100.00
13968;BME280;39536;52.198;9.920;2023-01-28T00:57:44;101944.16;;;2.02;100.00
13968;BME280;39536;52.198;9.920;2023-01-28T01:00:11;101937.94;;;1.92;100.00
13968;BME280;39536;52.198;9.920;2023-01-28T01:02:37;101942.91;;;1.86;100.00
13968;BME280;39536;52.198;9.920;2023-01-28T01:05:04;101945.47;;;1.84;100.00
13968;BME280;39536;52.198;9.920;2023-01-28T01:07:31;101950.31;;;1.74;100.00
13968;BME280;39536;52.198;9.920;2023-01-28T01:10:07;101946.59;;;1.63;100.00
13968;BME280;39536;52.198;9.920;2023-01-28T01:12:35;101950.06;;;1.65;100.00
13968;BME280;39536;52.198;9.920;2023-01-28T01:15:01;101951.84;;;1.67;100.00
13968;BME280;39536;52.198;9.920;2023-01-28T01:17:29;101954.56;;;1.73;100.00
13968;BME280;39536;52.198;9.920;2023-01-28T01:19:55;101952.72;;;1.68;100.00
13968;BME280;39536;52.198;9.920;2023-01-28T01:22:22;101954.25;;;1.61;100.00
13968;BME280;39536;52.198;9.920;2023-01-28T01:24:48;101946.25;;;1.50;100.00
13968;BME280;39536;52.198;9.920;2023-01-28T01:27:15;101947.16;;;1.52;100.00
13968;BME280;39536;52.198;9.920;2023-01-28T01:29:43;101946.88;;;1.42;100.00
13968;BME280;39536;52.198;9.920;2023-01-28T01:32:09;101947.22;;;1.54;100.00
13968;BME280;39536;52.198;9.920;2023-01-28T01:34:35;101949.09;;;1.59;100.00
13968;BME280;39536;52.198;9.920;2023-01-28T01:37:02;101948.06;;;1.53;100.00
13968;BME280;39536;52.198;9.920;2023-01-28T01:39:30;101949.63;;;1.49;100.00
13968;BME280;39536;52.198;9.920;2023-01-28T01:41:56;101950.63;;;1.53;100.00
13968;BME280;39536;52.198;9.920;2023-01-28T01:44:46;101947.91;;;1.48;100.00
13968;BME280;39536;52.198;9.920;2023-01-28T01:47:18;101946.13;;;1.46;100.00
13968;BME280;39536;52.198;9.920;2023-01-28T01:49:46;101945.44;;;1.51;100.00
13968;BME280;39536;52.198;9.920;2023-01-28T01:52:15;101950.63;;;1.53;100.00
13968;BME280;39536;52.198;9.920;2023-01-28T01:54:46;101953.19;;;1.53;100.00
13968;BME280;39536;52.198;9.920;2023-01-28T01:57:17;101954.94;;;1.55;100.00
13968;BME280;39536;52.198;9.920;2023-01-28T01:59:49;101953.28;;;1.57;100.00
13968;BME280;39536;52.198;9.920;2023-01-28T02:02:16;101954.91;;;1.54;100.00
13968;BME280;39536;52.198;9.920;2023-01-28T02:04:43;101950.72;;;1.57;100.00
13968;BME280;39536;52.198;9.920;2023-01-28T02:07:12;101956.53;;;1.50;100.00
13968;BME280;39536;52.198;9.920;2023-01-28T02:09:40;101956.53;;;1.50;100.00
13968;BME280;39536;52.198;9.920;2023-01-28T02:12:08;101965.38;;;1.61;100.00
13968;BME280;39536;52.198;9.920;2023-01-28T02:14:41;101970.56;;;1.63;100.00
13968;BME280;39536;52.198;9.920;2023-01-28T02:17:11;101971.25;;;1.56;100.00
13968;BME280;39536;52.198;9.920;2023-01-28T02:19:42;101960.84;;;1.51;100.00
13968;BME280;39536;52.198;9.920;2023-01-28T02:22:21;101974.16;;;1.38;100.00
13968;BME280;39536;52.198;9.920;2023-01-28T02:25:08;101973.16;;;1.33;100.00
13968;BME280;39536;52.198;9.920;2023-01-28T02:27:55;101969.84;;;1.37;100.00
13968;BME280;39536;52.198;9.920;2023-01-28T02:30:31;101969.06;;;1.39;100.00
13968;BME280;39536;52.198;9.920;2023-01-28T02:33:01;101966.63;;;1.44;100.00
13968;BME280;39536;52.198;9.920;2023-01-28T02:35:36;101969.22;;;1.46;100.00
13968;BME280;39536;52.198;9.920;2023-01-28T02:38:07;101973.38;;;1.41;100.00
13968;BME280;39536;52.198;9.920;2023-01-28T02:40:37;101965.19;;;1.24;100.00
13968;BME280;39536;52.198;9.920;2023-01-28T02:43:31;101966.03;;;1.23;100.00
13968;BME280;39536;52.198;9.920;2023-01-28T02:45:59;101969.28;;;1.17;100.00
13968;BME280;39536;52.198;9.920;2023-01-28T02:48:45;101965.19;;;1.24;100.00
13968;BME280;39536;52.198;9.920;2023-01-28T02:51:17;101959.38;;;1.29;100.00
13968;BME280;39536;52.198;9.920;2023-01-28T02:53:52;101953.53;;;1.05;100.00
13968;BME280;39536;52.198;9.920;2023-01-28T02:56:29;101958.72;;;1.06;100.00
13968;BME280;39536;52.198;9.920;2023-01-28T02:59:04;101953.03;;;1.18;100.00
13968;BME280;39536;52.198;9.920;2023-01-28T03:01:47;101952.44;;;1.27;100.00
13968;BME280;39536;52.198;9.920;2023-01-28T03:04:27;101953.03;;;1.18;100.00
13968;BME280;39536;52.198;9.920;2023-01-28T03:06:57;101950.34;;;1.13;100.00
13968;BME280;39536;52.198;9.920;2023-01-28T03:09:29;101948.81;;;1.19;100.00
13968;BME280;39536;52.198;9.920;2023-01-28T03:11:58;101955.66;;;1.20;100.00
13968;BME280;39536;52.198;9.920;2023-01-28T03:14:50;101956.63;;;1.23;100.00
13968;BME280;39536;52.198;9.920;2023-01-28T03:17:39;101963.91;;;1.39;100.00
13968;BME280;39536;52.198;9.920;2023-01-28T03:20:25;101964.34;;;1.55;100.00
13968;BME280;39536;52.198;9.920;2023-01-28T03:23:13;101951.56;;;1.56;100.00
13968;BME280;39536;52.198;9.920;2023-01-28T03:26:00;101956.47;;;1.49;100.00
13968;BME280;39536;52.198;9.920;2023-01-28T03:28:47;101949.72;;;1.52;100.00
13968;BME280;39536;52.198;9.920;2023-01-28T03:31:34;101951.66;;;1.59;100.00
13968;BME280;39536;52.198;9.920;2023-01-28T03:34:20;101954.38;;;1.66;100.00
13968;BME280;39536;52.198;9.920;2023-01-28T03:37:05;101951.09;;;1.71;100.00
13968;BME280;39536;52.198;9.920;2023-01-28T03:39:33;101950.34;;;1.75;100.00
13968;BME280;39536;52.198;9.920;2023-01-28T03:42:02;101953.03;;;1.80;100.00
13968;BME280;39536;52.198;9.920;2023-01-28T03:44:29;101943.28;;;1.68;100.00
13968;BME280;39536;52.198;9.920;2023-01-28T03:47:16;101947.28;;;1.57;100.00
13968;BME280;39536;52.198;9.920;2023-01-28T03:49:45;101956.03;;;1.64;100.00
13968;BME280;39536;52.198;9.920;2023-01-28T03:52:14;101956.13;;;1.68;100.00
13968;BME280;39536;52.198;9.920;2023-01-28T03:54:40;101951.84;;;1.67;100.00
13968;BME280;39536;52.198;9.920;2023-01-28T03:57:07;101950.22;;;1.71;100.00
13968;BME280;39536;52.198;9.920;2023-01-28T03:59:34;101953.34;;;1.59;100.00
13968;BME280;39536;52.198;9.920;2023-01-28T04:02:00;101949.09;;;1.61;100.00
13968;BME280;39536;52.198;9.920;2023-01-28T04:04:29;101956.13;;;1.67;100.00
13968;BME280;39536;52.198;9.920;2023-01-28T04:06:57;101953.56;;;1.68;100.00
13968;BME280;39536;52.198;9.920;2023-01-28T04:09:24;101957.97;;;1.72;100.00
13968;BME280;39536;52.198;9.920;2023-01-28T04:11:50;101952.00;;;1.73;100.00
13968;BME280;39536;52.198;9.920;2023-01-28T04:14:17;101965.38;;;1.61;100.00
13968;BME280;39536;52.198;9.920;2023-01-28T04:16:44;101968.69;;;1.57;100.00
13968;BME280;39536;52.198;9.920;2023-01-28T04:19:11;101970.91;;;1.44;100.00
13968;BME280;39536;52.198;9.920;2023-01-28T04:21:39;101975.38;;;1.51;100.00
13968;BME280;39536;52.198;9.920;2023-01-28T04:24:06;101967.00;;;1.58;100.00
13968;BME280;39536;52.198;9.920;2023-01-28T04:26:33;101979.16;;;1.64;100.00
13968;BME280;39536;52.198;9.920;2023-01-28T04:28:59;101979.81;;;1.56;100.00
13968;BME280;39536;52.198;9.920;2023-01-28T04:31:26;101972.72;;;1.48;100.00
13968;BME280;39536;52.198;9.920;2023-01-28T04:33:52;101984.47;;;1.39;100.00
13968;BME280;39536;52.198;9.920;2023-01-28T04:36:18;101980.75;;;1.28;100.00
13968;BME280;39536;52.198;9.920;2023-01-28T04:38:46;101984.94;;;1.26;100.00
13968;BME280;39536;52.198;9.920;2023-01-28T04:41:13;101986.66;;;1.26;100.00
13968;BME280;39536;52.198;9.920;2023-01-28T04:43:39;101994.78;;;1.41;100.00
13968;BME280;39536;52.198;9.920;2023-01-28T04:46:06;102000.22;;;1.52;100.00
13968;BME280;39536;52.198;9.920;2023-01-28T04:48:33;101996.56;;;1.44;100.00
13968;BME280;39536;52.198;9.920;2023-01-28T04:51:00;102008.78;;;1.22;100.00
13968;BME280;39536;52.198;9.920;2023-01-28T04:53:27;102008.78;;;1.22;100.00
13968;BME280;39536;52.198;9.920;2023-01-28T04:55:55;102003.75;;;1.25;100.00
13968;BME280;39536;52.198;9.920;2023-01-28T04:58:22;101996.06;;;1.25;100.00
13968;BME280;39536;52.198;9.920;2023-01-28T05:00:53;101997.19;;;1.35;100.00
13968;BME280;39536;52.198;9.920;2023-01-28T05:03:20;102000.03;;;1.46;100.00
13968;BME280;39536;52.198;9.920;2023-01-28T05:05:46;101996.00;;;1.54;100.00
13968;BME280;39536;52.198;9.920;2023-01-28T05:08:13;101992.66;;;1.56;100.00
13968;BME280;39536;52.198;9.920;2023-01-28T05:10:39;101993.94;;;1.42;100.00
13968;BME280;39536;52.198;9.920;2023-01-28T05:13:07;102000.13;;;1.49;100.00
13968;BME280;39536;52.198;9.920;2023-01-28T05:15:34;102004.41;;;1.48;100.00
13968;BME280;39536;52.198;9.920;2023-01-28T05:18:00;102001.53;;;1.37;100.00
13968;BME280;39536;52.198;9.920;2023-01-28T05:20:27;102000.63;;;1.37;100.00
13968;BME280;39536;52.198;9.920;2023-01-28T05:22:53;102005.66;;;1.32;100.00
13968;BME280;39536;52.198;9.920;2023-01-28T05:25:20;101995.03;;;1.20;100.00
13968;BME280;39536;52.198;9.920;2023-01-28T05:27:48;102000.41;;;1.28;100.00
13968;BME280;39536;52.198;9.920;2023-01-28T05:30:17;102000.50;;;1.31;100.00
13968;BME280;39536;52.198;9.920;2023-01-28T05:32:44;101995.19;;;1.25;100.00
13968;BME280;39536;52.198;9.920;2023-01-28T05:35:10;102002.81;;;1.23;100.00
13968;BME280;39536;52.198;9.920;2023-01-28T05:37:36;101996.81;;;1.23;100.00
13968;BME280;39536;52.198;9.920;2023-01-28T05:40:04;102006.50;;;1.31;100.00
13968;BME280;39536;52.198;9.920;2023-01-28T05:42:30;102001.22;;;1.27;100.00
13968;BME280;39536;52.198;9.920;2023-01-28T05:44:57;102000.53;;;1.32;100.00
13968;BME280;39536;52.198;9.920;2023-01-28T05:47:26;102001.28;;;1.28;100.00
13968;BME280;39536;52.198;9.920;2023-01-28T05:49:52;102001.69;;;1.13;100.00
13968;BME280;39536;52.198;9.920;2023-01-28T05:52:19;101999.13;;;1.13;100.00
13968;BME280;39536;52.198;9.920;2023-01-28T05:54:45;101994.16;;;1.20;100.00
13968;BME280;39536;52.198;9.920;2023-01-28T05:57:12;101987.41;;;1.23;100.00
13968;BME280;39536;52.198;9.920;2023-01-28T05:59:38;101992.63;;;1.25;100.00
13968;BME280;39536;52.198;9.920;2023-01-28T06:02:05;101991.59;;;1.20;100.00
13968;BME280;39536;52.198;9.920;2023-01-28T06:04:33;101994.81;;;1.12;100.00
13968;BME280;39536;52.198;9.920;2023-01-28T06:06:59;101995.88;;;1.19;100.00
13968;BME280;39536;52.198;9.920;2023-01-28T06:09:26;101998.81;;;1.33;100.00
13968;BME280;39536;52.198;9.920;2023-01-28T06:11:52;101992.91;;;1.35;100.00
13968;BME280;39536;52.198;9.920;2023-01-28T06:14:19;101990.75;;;1.19;100.00
13968;BME280;39536;52.198;9.920;2023-01-28T06:16:45;101998.53;;;1.22;100.00
13968;BME280;39536;52.198;9.920;2023-01-28T06:19:12;101988.28;;;1.24;100.00
13968;BME280;39536;52.198;9.920;2023-01-28T06:21:39;101996.75;;;1.21;100.00
13968;BME280;39536;52.198;9.920;2023-01-28T06:24:07;102006.06;;;1.18;100.00
13968;BME280;39536;52.198;9.920;2023-01-28T06:26:34;102014.00;;;1.25;100.00
13968;BME280;39536;52.198;9.920;2023-01-28T06:29:00;102004.72;;;1.30;100.00
13968;BME280;39536;52.198;9.920;2023-01-28T06:31:27;102008.09;;;1.28;100.00
13968;BME280;39536;52.198;9.920;2023-01-28T06:33:53;102007.53;;;1.38;100.00
13968;BME280;39536;52.198;9.920;2023-01-28T06:36:20;102004.88;;;1.35;100.00
13968;BME280;39536;52.198;9.920;2023-01-28T06:38:48;102003.78;;;1.27;100.00
13968;BME280;39536;52.198;9.920;2023-01-28T06:41:14;102007.34;;;1.32;100.00
13968;BME280;39536;52.198;9.920;2023-01-28T06:43:41;102007.56;;;1.39;100.00
13968;BME280;39536;52.198;9.920;2023-01-28T06:46:07;102013.66;;;1.43;100.00
13968;BME280;39536;52.198;9.920;2023-01-28T06:48:34;102009.41;;;1.44;100.00
13968;BME280;39536;52.198;9.920;2023-01-28T06:51:00;102007.63;;;1.41;100.00
13968;BME280;39536;52.198;9.920;2023-01-28T06:53:26;102002.97;;;1.28;100.00
13968;BME280;39536;52.198;9.920;2023-01-28T06:55:54;102014.28;;;1.06;100.00
13968;BME280;39536;52.198;9.920;2023-01-28T06:58:21;102004.66;;;0.99;100.00
13968;BME280;39536;52.198;9.920;2023-01-28T07:00:47;102007.50;;;1.08;100.00
13968;BME280;39536;52.198;9.920;2023-01-28T07:03:14;102007.75;;;1.15;100.00
13968;BME280;39536;52.198;9.920;2023-01-28T07:05:40;102003.41;;;1.14;100.00
13968;BME280;39536;52.198;9.920;2023-01-28T07:08:07;102007.84;;;1.19;100.00
13968;BME280;39536;52.198;9.920;2023-01-28T07:10:33;102019.66;;;1.13;100.00
13968;BME280;39536;52.198;9.920;2023-01-28T07:13:01;102026.47;;;1.13;100.00
13968;BME280;39536;52.198;9.920;2023-01-28T07:15:28;102017.44;;;1.26;100.00
13968;BME280;39536;52.198;9.920;2023-01-28T07:17:55;102011.53;;;1.28;100.00
13968;BME280;39536;52.198;9.920;2023-01-28T07:20:21;102013.47;;;1.37;100.00
13968;BME280;39536;52.198;9.920;2023-01-28T07:22:48;102018.38;;;1.28;100.00
13968;BME280;39536;52.198;9.920;2023-01-28T07:25:14;102019.34;;;1.33;100.00
13968;BME280;39536;52.198;9.920;2023-01-28T07:27:46;102013.84;;;1.19;100.00
13968;BME280;39536;52.198;9.920;2023-01-28T07:30:15;102018.09;;;1.19;100.00
13968;BME280;39536;52.198;9.920;2023-01-28T07:32:42;102019.84;;;1.20;100.00
13968;BME280;39536;52.198;9.920;2023-01-28T07:35:08;102012.97;;;1.19;100.00
13968;BME280;39536;52.198;9.920;2023-01-28T07:37:35;102009.41;;;1.15;100.00
13968;BME280;39536;52.198;9.920;2023-01-28T07:40:02;102017.28;;;1.21;100.00
13968;BME280;39536;52.198;9.920;2023-01-28T07:42:28;102026.75;;;1.22;100.00
13968;BME280;39536;52.198;9.920;2023-01-28T07:44:55;102031.03;;;1.22;100.00
13968;BME280;39536;52.198;9.920;2023-01-28T07:47:23;102030.56;;;1.35;100.00
13968;BME280;39536;52.198;9.920;2023-01-28T07:49:49;102034.16;;;1.42;100.00
13968;BME280;39536;52.198;9.920;2023-01-28T07:52:16;102026.53;;;1.45;100.00
13968;BME280;39536;52.198;9.920;2023-01-28T07:54:42;102026.53;;;1.45;100.00
13968;BME280;39536;52.198;9.920;2023-01-28T07:57:08;102026.50;;;1.43;100.00
13968;BME280;39536;52.198;9.920;2023-01-28T07:59:35;102031.59;;;1.42;100.00
13968;BME280;39536;52.198;9.920;2023-01-28T08:02:02;102030.75;;;1.43;100.00
13968;BME280;39536;52.198;9.920;2023-01-28T08:04:30;102023.84;;;1.40;100.00
13968;BME280;39536;52.198;9.920;2023-01-28T08:06:56;102034.84;;;1.36;100.00
13968;BME280;39536;52.198;9.920;2023-01-28T08:09:23;102032.25;;;1.34;100.00
13968;BME280;39536;52.198;9.920;2023-01-28T08:11:49;102031.53;;;1.40;100.00
13968;BME280;39536;52.198;9.920;2023-01-28T08:14:16;102037.75;;;1.47;100.00
13968;BME280;39536;52.198;9.920;2023-01-28T08:16:43;102036.25;;;1.55;100.00
13968;BME280;39536;52.198;9.920;2023-01-28T08:19:09;102050.59;;;1.47;100.00
13968;BME280;39536;52.198;9.920;2023-01-28T08:21:37;102044.44;;;1.42;100.00
13968;BME280;39536;52.198;9.920;2023-01-28T08:24:04;102053.19;;;1.48;100.00
13968;BME280;39536;52.198;9.920;2023-01-28T08:26:31;102059.56;;;1.32;100.00
13968;BME280;39536;52.198;9.920;2023-01-28T08:28:57;102059.59;;;1.34;100.00
13968;BME280;39536;52.198;9.920;2023-01-28T08:31:24;102062.50;;;1.16;100.00
13968;BME280;39536;52.198;9.920;2023-01-28T08:33:50;102074.88;;;1.29;100.00
13968;BME280;39536;52.198;9.920;2023-01-28T08:36:17;102077.72;;;1.10;100.00
13968;BME280;39536;52.198;9.920;2023-01-28T08:38:44;102081.22;;;1.13;100.00
13968;BME280;39536;52.198;9.920;2023-01-28T08:41:11;102085.91;;;1.27;100.00
13968;BME280;39536;52.198;9.920;2023-01-28T08:43:37;102073.53;;;1.42;100.00
13968;BME280;39536;52.198;9.920;2023-01-28T08:46:04;102073.88;;;1.53;100.00
13968;BME280;39536;52.198;9.920;2023-01-28T08:48:30;102083.78;;;1.41;100.00
13968;BME280;39536;52.198;9.920;2023-01-28T08:50:58;102086.84;;;1.29;100.00
13968;BME280;39536;52.198;9.920;2023-01-28T08:53:25;102092.53;;;1.19;100.00
13968;BME280;39536;52.198;9.920;2023-01-28T08:55:52;102086.78;;;1.27;100.00
13968;BME280;39536;52.198;9.920;2023-01-28T08:58:19;102097.75;;;1.22;100.00
13968;BME280;39536;52.198;9.920;2023-01-28T09:00:46;102097.66;;;1.47;100.00
13968;BME280;39536;52.198;9.920;2023-01-28T09:03:13;102095.56;;;1.63;100.00
13968;BME280;39536;52.198;9.920;2023-01-28T09:05:40;102104.72;;;1.54;100.00
13968;BME280;39536;52.198;9.920;2023-01-28T09:08:07;102110.34;;;1.43;100.00
13968;BME280;39536;52.198;9.920;2023-01-28T09:10:34;102119.28;;;1.27;100.00
13968;BME280;39536;52.198;9.920;2023-01-28T09:13:05;102123.41;;;1.22;100.00
13968;BME280;39536;52.198;9.920;2023-01-28T09:15:32;102130.72;;;1.09;100.00
13968;BME280;39536;52.198;9.920;2023-01-28T09:17:58;102127.16;;;1.06;100.00
13968;BME280;39536;52.198;9.920;2023-01-28T09:20:25;102123.13;;;1.12;100.00
13968;BME280;39536;52.198;9.920;2023-01-28T09:22:51;102120.59;;;1.14;100.00
13968;BME280;39536;52.198;9.920;2023-01-28T09:25:18;102122.88;;;1.05;100.00
13968;BME280;39536;52.198;9.920;2023-01-28T09:27:44;102126.38;;;1.07;100.00
13968;BME280;39536;52.198;9.920;2023-01-28T09:30:13;102125.88;;;1.19;100.00
13968;BME280;39536;52.198;9.920;2023-01-28T09:32:39;102140.78;;;1.30;100.00
13968;BME280;39536;52.198;9.920;2023-01-28T09:35:06;102145.91;;;1.30;100.00
13968;BME280;39536;52.198;9.920;2023-01-28T09:37:33;102153.13;;;1.42;100.00
13968;BME280;39536;52.198;9.920;2023-01-28T09:39:59;102160.81;;;1.42;100.00
13968;BME280;39536;52.198;9.920;2023-01-28T09:42:46;102163.59;;;1.48;100.00
13968;BME280;39536;52.198;9.920;2023-01-28T09:45:22;102162.53;;;1.14;100.00
13968;BME280;39536;52.198;9.920;2023-01-28T09:47:51;102160.13;;;1.19;100.00
13968;BME280;39536;52.198;9.920;2023-01-28T09:50:22;102164.72;;;1.29;100.00
13968;BME280;39536;52.198;9.920;2023-01-28T09:52:53;102165.13;;;1.43;100.00
13968;BME280;39536;52.198;9.920;2023-01-28T09:55:30;102167.97;;;1.52;100.00
13968;BME280;39536;52.198;9.920;2023-01-28T09:57:58;102160.63;;;1.63;100.00
13968;BME280;39536;52.198;9.920;2023-01-28T10:00:29;102170.44;;;1.49;100.00
13968;BME280;39536;52.198;9.920;2023-01-28T10:03:13;102175.47;;;1.45;100.00
13968;BME280;39536;52.198;9.920;2023-01-28T10:05:52;102172.28;;;1.25;100.00
13968;BME280;39536;52.198;9.920;2023-01-28T10:08:37;102166.97;;;1.20;100.00
13968;BME280;39536;52.198;9.920;2023-01-28T10:11:16;102166.56;;;1.06;100.00
13968;BME280;39536;52.198;9.920;2023-01-28T10:13:48;102167.66;;;1.14;100.00
13968;BME280;39536;52.198;9.920;2023-01-28T10:16:24;102161.72;;;1.15;100.00
13968;BME280;39536;52.198;9.920;2023-01-28T10:18:55;102155.97;;;1.24;100.00
13968;BME280;39536;52.198;9.920;2023-01-28T10:21:26;102156.59;;;1.15;100.00
13968;BME280;39536;52.198;9.920;2023-01-28T10:23:59;102158.34;;;1.18;100.00
13968;BME280;39536;52.198;9.920;2023-01-28T10:26:31;102152.84;;;1.33;100.00
13968;BME280;39536;52.198;9.920;2023-01-28T10:29:03;102156.03;;;1.26;100.00
13968;BME280;39536;52.198;9.920;2023-01-28T10:31:35;102151.66;;;1.22;100.00
13968;BME280;39536;52.198;9.920;2023-01-28T10:34:05;102147.03;;;1.11;100.00
13968;BME280;39536;52.198;9.920;2023-01-28T10:36:32;102141.75;;;1.07;100.00
13968;BME280;39536;52.198;9.920;2023-01-28T10:38:59;102137.69;;;1.13;100.00
13968;BME280;39536;52.198;9.920;2023-01-28T10:41:25;102133.13;;;1.32;100.00
13968;BME280;39536;52.198;9.920;2023-01-28T10:43:52;102132.38;;;1.34;100.00
13968;BME280;39536;52.198;9.920;2023-01-28T10:46:21;102131.41;;;1.31;100.00
13968;BME280;39536;52.198;9.920;2023-01-28T10:48:55;102137.06;;;1.21;100.00
13968;BME280;39536;52.198;9.920;2023-01-28T10:51:31;102128.34;;;1.15;100.00
13968;BME280;39536;52.198;9.920;2023-01-28T10:53:58;102131.16;;;1.23;100.00
13968;BME280;39536;52.198;9.920;2023-01-28T10:56:25;102119.53;;;1.07;100.00
13968;BME280;39536;52.198;9.920;2023-01-28T10:58:57;102121.94;;;1.03;100.00
13968;BME280;39536;52.198;9.920;2023-01-28T11:01:36;102127.16;;;1.06;100.00
13968;BME280;39536;52.198;9.920;2023-01-28T11:04:05;102139.84;;;1.01;100.00
13968;BME280;39536;52.198;9.920;2023-01-28T11:06:32;102138.78;;;0.95;100.00
13968;BME280;39536;52.198;9.920;2023-01-28T11:08:58;102138.78;;;0.95;100.00
13968;BME280;39536;52.198;9.920;2023-01-28T11:11:26;102142.44;;;1.01;100.00
13968;BME280;39536;52.198;9.920;2023-01-28T11:13:53;102144.03;;;0.72;100.00
13968;BME280;39536;52.198;9.920;2023-01-28T11:16:23;102146.00;;;0.81;100.00
13968;BME280;39536;52.198;9.920;2023-01-28T11:18:52;102146.63;;;0.99;100.00
13968;BME280;39536;52.198;9.920;2023-01-28T11:21:23;102150.34;;;1.09;100.00
13968;BME280;39536;52.198;9.920;2023-01-28T11:23:52;102140.88;;;1.06;100.00
13968;BME280;39536;52.198;9.920;2023-01-28T11:26:22;102142.84;;;1.15;100.00
13968;BME280;39536;52.198;9.920;2023-01-28T11:28:49;102152.25;;;1.14;100.00
13968;BME280;39536;52.198;9.920;2023-01-28T11:31:18;102146.22;;;1.12;100.00
13968;BME280;39536;52.198;9.920;2023-01-28T11:33:49;102155.69;;;1.15;100.00
13968;BME280;39536;52.198;9.920;2023-01-28T11:36:17;102151.19;;;1.08;100.00
13968;BME280;39536;52.198;9.920;2023-01-28T11:38:50;102143.34;;;1.03;100.00
13968;BME280;39536;52.198;9.920;2023-01-28T11:41:18;102139.22;;;0.81;100.00
13968;BME280;39536;52.198;9.920;2023-01-28T11:43:48;102138.59;;;0.88;100.00
13968;BME280;39536;52.198;9.920;2023-01-28T11:46:37;102138.13;;;0.75;100.00
13968;BME280;39536;52.198;9.920;2023-01-28T11:49:14;102131.41;;;0.78;100.00
13968;BME280;39536;52.198;9.920;2023-01-28T11:51:51;102128.88;;;0.80;100.00
13968;BME280;39536;52.198;9.920;2023-01-28T11:54:35;102116.72;;;0.74;100.00
13968;BME280;39536;52.198;9.920;2023-01-28T11:57:18;102126.03;;;0.71;100.00
13968;BME280;39536;52.198;9.920;2023-01-28T12:00:03;102127.25;;;0.56;100.00
13968;BME280;39536;52.198;9.920;2023-01-28T12:02:50;102103.38;;;0.57;100.00
13968;BME280;39536;52.198;9.920;2023-01-28T12:05:40;102105.00;;;0.55;100.00
13968;BME280;39536;52.198;9.920;2023-01-28T12:08:11;102099.72;;;0.51;100.00
13968;BME280;39536;52.198;9.920;2023-01-28T12:10:47;102100.25;;;0.66;100.00
13968;BME280;39536;52.198;9.920;2023-01-28T12:13:29;102095.31;;;0.72;100.00
13968;BME280;39536;52.198;9.920;2023-01-28T12:16:12;102087.84;;;0.80;100.00
13968;BME280;39536;52.198;9.920;2023-01-28T12:18:59;102095.22;;;0.96;100.00
13968;BME280;39536;52.198;9.920;2023-01-28T12:21:37;102089.84;;;0.88;100.00
13968;BME280;39536;52.198;9.920;2023-01-28T12:24:16;102089.50;;;1.05;100.00
13968;BME280;39536;52.198;9.920;2023-01-28T12:26:51;102084.81;;;1.19;100.00
13968;BME280;39536;52.198;9.920;2023-01-28T12:29:28;102076.47;;;1.26;100.00
13968;BME280;39536;52.198;9.920;2023-01-28T12:32:05;102076.75;;;1.06;100.00
13968;BME280;39536;52.198;9.920;2023-01-28T12:37:09;102071.81;;;1.12;100.00
13968;BME280;39536;52.198;9.920;2023-01-28T12:39:51;102071.34;;;1.26;100.00
13968;BME280;39536;52.198;9.920;2023-01-28T12:42:31;102051.44;;;1.47;100.00
13968;BME280;39536;52.198;9.920;2023-01-28T12:45:01;102036.84;;;1.76;100.00
13968;BME280;39536;52.198;9.920;2023-01-28T12:47:33;102007.94;;;2.17;100.00
13968;BME280;39536;52.198;9.920;2023-01-28T12:50:03;101997.09;;;2.63;100.00
13968;BME280;39536;52.198;9.920;2023-01-28T12:52:39;101980.66;;;2.96;100.00
13968;BME280;39536;52.198;9.920;2023-01-28T12:55:13;101975.03;;;3.12;100.00
13968;BME280;39536;52.198;9.920;2023-01-28T12:57:43;101970.81;;;3.16;100.00
13968;BME280;39536;52.198;9.920;2023-01-28T13:00:20;101969.50;;;2.95;100.00
13968;BME280;39536;52.198;9.920;2023-01-28T13:02:52;101965.50;;;3.08;100.00
13968;BME280;39536;52.198;9.920;2023-01-28T13:05:27;101959.59;;;3.12;100.00
13968;BME280;39536;52.198;9.920;2023-01-28T13:08:01;101956.88;;;3.06;100.00